Location Sebastian, FL, US

ob KFLSEBAS1 151415Z AUTO 30000KT BKN029 23/22 A3003 RMK SLPNO 

2018.11.15 1415 UTC
Wind from the NW (301 degrees) at Calm MPH ( KT) gusting to 0.0 MPH (0 KT)
Visibility    Mile(s)
Sky Conditions  mostly cloudy
Temperature 73.30 F (23 C)
Dew Point 71.79 F (22 C)
Relative Humidity 95%
Pressure   30.03 in. Hg (1017 hPa)
Rain  0.12 in.
Daily Rain  in.

Station Name  Memory Makers, Inc.
Longitude, Latitude  -80.48, 27.8
Elevation 23
Station URL www.kflsebas1.com
Software Type VWS V15.00